La Grange Park, Illinois
Current Conditions -  °F | °C
As of 1:53 PM on Sunday 23 Nov 2014 (Local Time) from KMDW Reporting Station
Light Rain Light Rain  
Wind Chill: 53°   Ceiling: 1800
Heat Index: 53°   Visibility: 10mi
Dew Point: 48°   Wind: 12mph
Humidity: 83%   Direction: 150°SSE
Pressure: 29.53"   Gusts: NA
Location:  41.82°N, 87.87°W
Report Text: KMDW 231953Z 15010KT 10SM -RA BKN018 BKN026 OVC080 12/09 A2953 RMK AO2 SLP000 P0000 T01170089
Loading
Personal Weather Stations






























Interactive Weather Map New forecast layout! Learn more

10-Day Weather Forecast

Advertisements
Track Severe Weather on mobile